Time;durP1;ratioP1;P1;durP2;ratioP2;P2;SDS_P1;SDS_P2;PMS_P1;PMS_P2;Temp;Humidity;BMP_temperature;BMP_pressure;BME280_temperature;BME280_humidity;BME280_pressure;Samples;Min_cycle;Max_cycle;Signal;HPM_P1;HPM_P2
2023/09/06 00:01:04;;;;;;;5.30;3.47;;;;;;;22.66;68.63;99286.59;5073550;28;20188;-87
2023/09/06 00:03:30;;;;;;;5.70;3.50;;;;;;;22.71;68.47;99289.66;5056325;28;20299;-88
2023/09/06 00:05:58;;;;;;;5.23;3.30;;;;;;;22.57;69.27;99286.50;5055999;28;20288;-87
2023/09/06 00:08:24;;;;;;;6.13;3.83;;;;;;;22.57;68.82;99280.31;5055089;28;20226;-87
2023/09/06 00:10:52;;;;;;;7.63;3.93;;;;;;;22.58;69.14;99280.16;5073312;28;20177;-87
2023/09/06 00:13:18;;;;;;;6.90;3.87;;;;;;;22.57;68.87;99278.47;5056058;28;20177;-86
2023/09/06 00:15:45;;;;;;;6.90;3.53;;;;;;;22.57;69.00;99277.63;5073156;28;20177;-87
2023/09/06 00:18:11;;;;;;;5.53;3.53;;;;;;;22.49;69.16;99280.22;5073301;28;20622;-87
2023/09/06 00:20:38;;;;;;;10.50;4.37;;;;;;;22.44;69.31;99283.34;5055609;28;20185;-88
2023/09/06 00:23:08;;;;;;;6.33;3.97;;;;;;;22.57;69.00;99273.13;5073748;28;20611;-88
2023/09/06 00:25:36;;;;;;;5.83;3.43;;;;;;;22.59;68.69;99276.47;5073124;28;20311;-88
2023/09/06 00:28:04;;;;;;;8.10;4.20;;;;;;;22.55;69.34;99275.13;5073395;28;20601;-89
2023/09/06 00:30:31;;;;;;;10.13;4.33;;;;;;;22.54;69.28;99269.91;5052000;28;20233;-87
2023/09/06 00:32:58;;;;;;;7.73;4.40;;;;;;;22.53;69.22;99276.28;5053056;28;20181;-87
2023/09/06 00:35:26;;;;;;;7.27;4.33;;;;;;;22.59;69.31;99275.63;5052870;28;20181;-87
2023/09/06 00:37:54;;;;;;;6.07;3.93;;;;;;;22.56;69.29;99270.63;5053324;28;20178;-87
2023/09/06 00:40:22;;;;;;;8.20;3.87;;;;;;;22.42;69.92;99279.16;5053550;28;20174;-87
2023/09/06 00:42:49;;;;;;;9.07;4.23;;;;;;;22.50;70.28;99273.91;5053013;28;20174;-87
2023/09/06 00:45:23;;;;;;;6.70;4.23;;;;;;;22.52;69.69;99267.41;5052723;28;20225;-86
2023/09/06 00:47:49;;;;;;;7.80;4.20;;;;;;;22.61;69.31;99271.00;5053533;28;20571;-88
2023/09/06 00:50:18;;;;;;;7.37;4.67;;;;;;;22.51;69.70;99272.91;5052477;28;20188;-87
2023/09/06 00:52:44;;;;;;;8.07;4.53;;;;;;;22.56;69.69;99266.09;5052184;28;20186;-87
2023/09/06 00:55:11;;;;;;;7.13;3.80;;;;;;;22.53;70.13;99266.44;5052864;28;20173;-86
2023/09/06 00:57:38;;;;;;;9.33;4.37;;;;;;;22.64;69.28;99260.03;5051805;28;20209;-86
2023/09/06 01:00:06;;;;;;;7.60;4.37;;;;;;;22.59;69.99;99260.44;5052650;28;20178;-87
2023/09/06 01:02:33;;;;;;;7.33;4.23;;;;;;;22.81;69.40;99255.66;5051677;28;20528;-87
2023/09/06 01:04:59;;;;;;;8.40;4.07;;;;;;;22.83;69.11;99251.84;5053212;28;20178;-87
2023/09/06 01:07:34;;;;;;;8.33;4.20;;;;;;;22.76;69.10;99250.78;5052744;28;20173;-87
2023/09/06 01:10:03;;;;;;;6.93;4.13;;;;;;;22.79;69.41;99246.97;5053063;28;20252;-87
2023/09/06 01:12:30;;;;;;;6.77;3.43;;;;;;;22.66;69.60;99244.69;5051747;28;20541;-87
2023/09/06 01:14:56;;;;;;;5.63;3.87;;;;;;;22.70;69.63;99246.03;5052436;28;20178;-86
2023/09/06 01:17:26;;;;;;;8.43;4.33;;;;;;;22.63;69.64;99250.34;5053202;28;20243;-86
2023/09/06 01:19:59;;;;;;;7.80;3.83;;;;;;;22.68;69.32;99249.88;5056530;28;20548;-87
2023/09/06 01:22:38;;;;;;;8.80;4.20;;;;;;;22.74;68.98;99257.28;5056559;28;20173;-87
2023/09/06 01:25:07;;;;;;;7.93;4.27;;;;;;;22.61;69.35;99253.13;5056297;28;20180;-89
2023/09/06 01:27:34;;;;;;;5.60;3.37;;;;;;;22.60;70.03;99256.78;5055766;28;20230;-86
2023/09/06 01:30:00;;;;;;;9.13;3.70;;;;;;;22.63;70.03;99261.88;5070863;28;20275;-87
2023/09/06 01:32:27;;;;;;;10.63;4.50;;;;;;;22.72;69.22;99252.06;5076304;28;20696;-87
2023/09/06 01:34:54;;;;;;;8.23;4.07;;;;;;;22.56;70.04;99265.28;5058813;28;20259;-87
2023/09/06 01:37:24;;;;;;;7.00;4.57;;;;;;;22.73;70.12;99263.59;5058812;28;20188;-89
2023/09/06 01:39:49;;;;;;;8.70;4.27;;;;;;;22.86;69.54;99272.06;5058508;28;20173;-88
2023/09/06 01:42:22;;;;;;;9.10;3.87;;;;;;;22.89;69.42;99259.25;5064682;28;20183;-89
2023/09/06 01:44:49;;;;;;;6.53;4.07;;;;;;;22.86;69.46;99256.88;5059366;28;20263;-90
2023/09/06 01:47:16;;;;;;;9.63;4.67;;;;;;;22.83;69.74;99267.88;5076044;28;20181;-89
2023/09/06 01:49:45;;;;;;;7.30;4.33;;;;;;;22.83;69.78;99256.34;5075953;28;20634;-89
2023/09/06 01:52:10;;;;;;;10.40;4.20;;;;;;;22.82;70.17;99260.03;5076562;28;20173;-89
2023/09/06 01:54:37;;;;;;;8.50;3.93;;;;;;;22.80;70.51;99257.47;5075985;28;20188;-88
2023/09/06 01:57:06;;;;;;;7.80;4.33;;;;;;;22.84;70.35;99256.19;5075520;28;20185;-89
2023/09/06 01:59:31;;;;;;;6.37;4.17;;;;;;;22.83;70.72;99261.69;5076391;28;20514;-88
2023/09/06 02:01:58;;;;;;;7.03;3.90;;;;;;;22.89;70.48;99261.06;5075813;28;20246;-88
2023/09/06 02:04:24;;;;;;;6.90;4.67;;;;;;;22.90;70.16;99258.25;5075602;28;20176;-89
2023/09/06 02:06:51;;;;;;;7.07;3.60;;;;;;;22.87;70.30;99257.72;5075678;28;20197;-88
2023/09/06 02:09:19;;;;;;;6.40;3.80;;;;;;;22.84;70.33;99256.19;5075646;28;20250;-89
2023/09/06 02:11:46;;;;;;;9.60;4.47;;;;;;;22.81;70.74;99252.97;5075963;28;20690;-88
2023/09/06 02:14:12;;;;;;;10.00;4.27;;;;;;;22.85;70.50;99252.50;5057850;28;20268;-88
2023/09/06 02:16:39;;;;;;;6.57;4.03;;;;;;;22.88;70.42;99259.38;5075814;28;20256;-90
2023/09/06 02:19:06;;;;;;;8.17;4.13;;;;;;;22.89;70.34;99261.06;5075530;28;20192;-89
2023/09/06 02:21:32;;;;;;;6.53;4.17;;;;;;;22.83;70.49;99261.69;5075489;28;20259;-88
2023/09/06 02:23:58;;;;;;;7.70;4.00;;;;;;;22.79;70.39;99257.66;5075747;28;20260;-89
2023/09/06 02:26:24;;;;;;;7.00;4.30;;;;;;;22.77;70.66;99259.66;5075353;28;20354;-88
2023/09/06 02:28:50;;;;;;;9.17;4.27;;;;;;;22.78;70.75;99250.63;5075463;28;20681;-88
2023/09/06 02:31:17;;;;;;;6.10;3.87;;;;;;;22.81;70.57;99253.81;5061391;28;20602;-88
2023/09/06 02:33:44;;;;;;;8.10;4.60;;;;;;;22.84;70.01;99253.53;5055233;28;20178;-88
2023/09/06 02:36:11;;;;;;;7.53;4.73;;;;;;;22.85;69.90;99254.38;5055222;28;20166;-88
2023/09/06 02:38:38;;;;;;;10.07;5.43;;;;;;;22.81;70.08;99258.31;5073408;28;20180;-88
2023/09/06 02:41:05;;;;;;;8.23;4.60;;;;;;;22.75;69.77;99253.59;5057490;28;20208;-87
2023/09/06 02:43:31;;;;;;;8.43;5.00;;;;;;;22.74;70.20;99251.94;5057706;28;20173;-87
2023/09/06 02:46:02;;;;;;;9.30;4.10;;;;;;;22.75;69.76;99253.59;5057293;28;20581;-88
2023/09/06 02:48:29;;;;;;;5.63;3.87;;;;;;;22.72;69.84;99248.59;5075599;28;20219;-87
2023/09/06 02:50:58;;;;;;;6.50;3.67;;;;;;;22.72;70.03;99253.94;5074940;28;20246;-88
2023/09/06 02:53:23;;;;;;;6.50;3.73;;;;;;;22.73;69.75;99245.75;5057306;28;20185;-87
2023/09/06 02:55:51;;;;;;;6.47;4.10;;;;;;;22.80;69.33;99245.97;5057245;28;20695;-87
2023/09/06 02:58:24;;;;;;;7.50;3.87;;;;;;;22.84;69.02;99250.00;5057137;28;20645;-87
2023/09/06 03:00:55;;;;;;;8.00;4.43;;;;;;;22.89;69.01;99256.56;5057112;28;20173;-87
2023/09/06 03:03:22;;;;;;;7.23;3.87;;;;;;;22.95;68.71;99255.09;5074875;28;20200;-87
2023/09/06 03:05:48;;;;;;;8.03;3.87;;;;;;;22.98;68.60;99252.13;5074695;28;20193;-87
2023/09/06 03:08:16;;;;;;;5.57;3.60;;;;;;;22.98;68.60;99254.81;5075099;28;20177;-87
2023/09/06 03:10:46;;;;;;;6.97;4.00;;;;;;;22.97;68.43;99258.47;5056519;28;20238;-87
2023/09/06 03:13:11;;;;;;;5.70;3.70;;;;;;;22.99;68.01;99267.16;5056859;28;20541;-87
2023/09/06 03:15:43;;;;;;;8.73;3.93;;;;;;;23.07;68.16;99269.88;5057138;28;20653;-87
2023/09/06 03:18:10;;;;;;;6.63;3.50;;;;;;;23.05;68.39;99271.88;5074988;28;20267;-87
2023/09/06 03:20:42;;;;;;;8.30;3.43;;;;;;;23.00;68.05;99269.69;5074345;28;20533;-87
2023/09/06 03:23:17;;;;;;;5.73;3.83;;;;;;;22.91;68.63;99272.44;5074190;28;20215;-87
2023/09/06 03:25:45;;;;;;;8.77;3.73;;;;;;;22.98;68.69;99278.88;5074219;28;20212;-87
2023/09/06 03:28:12;;;;;;;8.43;3.70;;;;;;;23.01;68.36;99283.88;5056878;28;20187;-87
2023/09/06 03:30:39;;;;;;;5.00;2.93;;;;;;;23.09;67.74;99286.59;5074893;28;20645;-87
2023/09/06 03:33:06;;;;;;;7.03;3.93;;;;;;;23.09;67.65;99291.97;5074332;28;20202;-87
2023/09/06 03:35:33;;;;;;;8.23;4.03;;;;;;;23.11;67.52;99287.31;5074277;28;20169;-87
2023/09/06 03:38:00;;;;;;;6.47;3.53;;;;;;;23.11;67.69;99292.66;5074258;28;20177;-87
2023/09/06 03:40:36;;;;;;;5.80;3.70;;;;;;;23.08;67.50;99291.16;5073810;28;20310;-86
2023/09/06 03:43:05;;;;;;;6.97;4.10;;;;;;;22.99;67.78;99286.72;5055335;28;20180;-87
2023/09/06 03:45:33;;;;;;;5.50;3.23;;;;;;;23.04;67.62;99294.25;5074241;28;20189;-87
2023/09/06 03:48:04;;;;;;;5.20;3.43;;;;;;;23.07;67.48;99293.94;5073921;28;20597;-87
2023/09/06 03:50:30;;;;;;;7.50;3.43;;;;;;;23.13;67.22;99298.69;5074043;28;20236;-87
2023/09/06 03:52:57;;;;;;;5.10;3.07;;;;;;;23.19;66.77;99303.44;5056034;28;20275;-87
2023/09/06 03:55:24;;;;;;;8.63;3.70;;;;;;;23.22;67.10;99300.41;5073888;28;20177;-87
2023/09/06 03:57:52;;;;;;;8.33;4.20;;;;;;;23.24;66.64;99301.13;5074114;28;20234;-87
2023/09/06 04:00:30;;;;;;;6.30;3.20;;;;;;;23.28;66.50;99299.78;5056101;28;20199;-87
2023/09/06 04:02:57;;;;;;;6.90;3.70;;;;;;;23.30;66.60;99308.50;5073833;28;20652;-87
2023/09/06 04:05:25;;;;;;;9.87;3.87;;;;;;;23.29;66.41;99301.47;5055667;28;20200;-86
2023/09/06 04:08:00;;;;;;;5.63;3.40;;;;;;;23.30;66.20;99316.53;5055861;28;20208;-87
2023/09/06 04:10:36;;;;;;;8.03;3.47;;;;;;;23.24;66.71;99314.50;5055749;28;20195;-87
2023/09/06 04:13:08;;;;;;;7.80;3.93;;;;;;;23.29;66.54;99320.22;5056802;28;20196;-87
2023/09/06 04:15:36;;;;;;;6.67;3.67;;;;;;;23.34;66.30;99315.22;5073374;28;20184;-86
2023/09/06 04:18:05;;;;;;;5.53;3.50;;;;;;;23.36;66.27;99318.56;5073526;28;20646;-87
2023/09/06 04:20:35;;;;;;;6.63;3.73;;;;;;;23.33;66.38;99318.88;5055630;28;20180;-87
2023/09/06 04:23:04;;;;;;;8.70;4.07;;;;;;;23.40;66.03;99321.81;5073183;28;20157;-87
2023/09/06 04:25:41;;;;;;;7.10;4.20;;;;;;;23.40;66.15;99319.97;5073318;28;20212;-87
2023/09/06 04:28:08;;;;;;;7.50;4.17;;;;;;;23.41;65.99;99321.66;5073731;28;20164;-87
2023/09/06 04:30:36;;;;;;;5.53;3.57;;;;;;;23.40;66.13;99313.78;5073109;28;20193;-87
2023/09/06 04:33:05;;;;;;;12.83;4.10;;;;;;;23.37;66.51;99314.94;5055498;28;20258;-86
2023/09/06 04:35:44;;;;;;;5.23;3.50;;;;;;;23.36;66.46;99313.22;5055281;28;20173;-87
2023/09/06 04:38:16;;;;;;;8.83;4.10;;;;;;;23.24;67.10;99314.50;5073382;28;20161;-87
2023/09/06 04:40:44;;;;;;;7.13;4.03;;;;;;;23.22;67.31;99319.13;5073228;28;20191;-87
2023/09/06 04:43:12;;;;;;;9.30;4.30;;;;;;;23.17;67.43;99322.28;5055400;28;20668;-86
2023/09/06 04:45:39;;;;;;;8.67;4.23;;;;;;;23.17;67.84;99324.09;5055627;28;20201;-86
2023/09/06 04:48:10;;;;;;;7.97;4.33;;;;;;;23.20;67.93;99329.16;5072998;28;20250;-86
2023/09/06 04:50:41;;;;;;;9.37;4.43;;;;;;;23.22;67.83;99328.00;5056190;28;20197;-87
2023/09/06 04:53:08;;;;;;;8.60;4.40;;;;;;;23.25;67.70;99332.19;5073628;28;20177;-86
2023/09/06 04:55:36;;;;;;;8.13;4.33;;;;;;;23.25;67.71;99329.53;5077399;28;20172;-87
2023/09/06 04:58:10;;;;;;;6.47;4.17;;;;;;;23.28;67.46;99329.22;5077312;28;20179;-86
2023/09/06 05:00:43;;;;;;;7.10;4.07;;;;;;;23.31;67.70;99328.91;5059350;28;20571;-87
2023/09/06 05:03:17;;;;;;;8.00;4.30;;;;;;;23.38;67.62;99337.16;5076846;28;20642;-86
2023/09/06 05:05:47;;;;;;;6.63;3.37;;;;;;;23.42;66.97;99334.03;5059242;28;20673;-86
2023/09/06 05:08:14;;;;;;;6.03;3.73;;;;;;;23.44;66.59;99337.41;5059199;28;20547;-87
2023/09/06 05:10:41;;;;;;;7.07;3.63;;;;;;;23.49;66.68;99337.75;5059032;28;20622;-86
2023/09/06 05:13:08;;;;;;;6.13;3.47;;;;;;;23.53;66.43;99340.97;5059427;28;20615;-86
2023/09/06 05:15:35;;;;;;;9.57;4.00;;;;;;;23.50;66.20;99347.47;5076721;28;20252;-86
2023/09/06 05:18:03;;;;;;;9.30;4.57;;;;;;;23.51;66.09;99349.13;5076830;28;20169;-87
2023/09/06 05:20:39;;;;;;;5.50;3.00;;;;;;;23.54;66.12;99356.84;5077168;28;20184;-86
2023/09/06 05:23:10;;;;;;;5.57;3.17;;;;;;;23.55;65.48;99355.03;5076868;28;20172;-87
2023/09/06 05:25:36;;;;;;;7.07;3.23;;;;;;;23.61;65.61;99359.75;5059227;28;20196;-87
2023/09/06 05:28:04;;;;;;;5.17;3.53;;;;;;;23.60;65.71;99352.72;5058653;28;20169;-87
2023/09/06 05:30:33;;;;;;;5.77;2.90;;;;;;;23.55;65.28;99363.91;5042303;28;20287;-87
2023/09/06 05:33:00;;;;;;;9.17;3.80;;;;;;;23.55;64.85;99366.56;5059282;28;20177;-86
2023/09/06 05:35:27;;;;;;;7.03;3.30;;;;;;;23.58;65.04;99368.94;5076628;28;20529;-86
2023/09/06 05:37:54;;;;;;;7.23;3.47;;;;;;;23.60;65.12;99372.28;5076296;28;20250;-87
2023/09/06 05:40:24;;;;;;;7.33;3.50;;;;;;;23.64;64.78;99370.13;5058525;28;20204;-87
2023/09/06 05:42:51;;;;;;;5.90;3.23;;;;;;;23.65;64.30;99369.13;5076601;28;20177;-86
2023/09/06 05:45:20;;;;;;;5.63;3.47;;;;;;;23.62;64.42;99366.78;5076342;28;20263;-86
2023/09/06 05:47:46;;;;;;;5.40;3.57;;;;;;;23.67;64.52;99376.00;5076404;28;20177;-86
2023/09/06 05:50:13;;;;;;;6.13;3.90;;;;;;;23.76;64.44;99379.59;5076124;28;20173;-86
2023/09/06 05:52:41;;;;;;;4.93;2.67;;;;;;;23.79;64.25;99382.78;5058414;28;20180;-87
2023/09/06 05:55:10;;;;;;;5.20;2.87;;;;;;;23.80;63.87;99384.47;5058630;28;20173;-87
2023/09/06 05:57:37;;;;;;;5.40;3.10;;;;;;;23.81;64.58;99394.19;5075987;28;20334;-86
2023/09/06 06:00:12;;;;;;;6.30;3.47;;;;;;;23.82;64.68;99395.84;5076433;28;20255;-87
2023/09/06 06:02:39;;;;;;;5.10;2.90;;;;;;;23.98;63.64;99394.28;5057934;28;20197;-87
2023/09/06 06:05:05;;;;;;;9.97;3.57;;;;;;;24.02;63.40;99401.81;5074769;28;20637;-87
2023/09/06 06:07:32;;;;;;;4.80;3.20;;;;;;;24.09;62.84;99399.38;5076148;28;20670;-86
2023/09/06 06:09:59;;;;;;;7.13;3.30;;;;;;;24.17;63.06;99402.94;5066662;28;20182;-87
2023/09/06 06:12:25;;;;;;;6.20;3.17;;;;;;;24.25;62.19;99407.50;5054896;28;20208;-87
2023/09/06 06:14:52;;;;;;;7.67;2.87;;;;;;;24.27;62.30;99414.38;5039334;28;20322;-86
2023/09/06 06:17:19;;;;;;;8.40;3.43;;;;;;;24.30;62.80;99413.19;5076531;28;20173;-86
2023/09/06 06:19:48;;;;;;;5.83;3.33;;;;;;;24.37;62.55;99411.59;5075105;28;20622;-87
2023/09/06 06:22:15;;;;;;;5.10;2.93;;;;;;;24.33;63.11;99421.78;5075042;28;20173;-87
2023/09/06 06:24:46;;;;;;;5.30;3.10;;;;;;;24.47;62.68;99419.47;5057695;28;20189;-87
2023/09/06 06:27:13;;;;;;;5.73;3.00;;;;;;;24.53;61.99;99421.53;5075365;28;20197;-87
2023/09/06 06:29:39;;;;;;;5.90;2.97;;;;;;;24.55;61.47;99424.88;5057701;28;20378;-87
2023/09/06 06:32:06;;;;;;;6.40;3.10;;;;;;;24.53;60.98;99429.56;5057434;28;20193;-86
2023/09/06 06:34:33;;;;;;;8.90;3.50;;;;;;;24.49;61.65;99431.72;5057377;28;20542;-86
2023/09/06 06:36:58;;;;;;;6.27;3.00;;;;;;;24.53;60.32;99435.75;5072793;28;20611;-87
2023/09/06 06:39:26;;;;;;;3.90;2.40;;;;;;;24.57;60.29;99431.75;5062396;28;20193;-87
2023/09/06 06:41:54;;;;;;;6.90;2.97;;;;;;;24.66;60.45;99435.31;5037623;28;20201;-86
2023/09/06 06:44:20;;;;;;;6.43;3.20;;;;;;;24.70;59.62;99433.97;5038423;28;20280;-86
2023/09/06 06:46:47;;;;;;;5.77;3.13;;;;;;;24.74;60.40;99433.47;5071087;28;20208;-86
2023/09/06 06:49:17;;;;;;;7.20;2.80;;;;;;;24.81;59.60;99437.22;5060063;28;20182;-86
2023/09/06 06:51:43;;;;;;;7.53;3.10;;;;;;;24.84;59.06;99442.25;5040055;28;20654;-88
2023/09/06 06:54:14;;;;;;;6.87;2.90;;;;;;;24.83;59.04;99434.38;5085794;28;20248;-87
2023/09/06 06:56:41;;;;;;;5.97;2.97;;;;;;;24.81;59.46;99439.06;5058941;28;20181;-86
2023/09/06 06:59:08;;;;;;;4.43;2.50;;;;;;;24.85;59.12;99438.56;5074375;28;20181;-87
2023/09/06 07:01:36;;;;;;;5.27;2.40;;;;;;;24.90;58.48;99440.75;5075025;28;20181;-88
2023/09/06 07:04:05;;;;;;;5.50;2.77;;;;;;;24.93;59.21;99435.91;5074747;28;20203;-86
2023/09/06 07:06:32;;;;;;;5.60;2.63;;;;;;;25.00;59.21;99436.91;5056843;28;20197;-87
2023/09/06 07:08:58;;;;;;;5.67;2.93;;;;;;;25.08;59.17;99433.41;5074811;28;20255;-86
2023/09/06 07:11:25;;;;;;;6.67;2.90;;;;;;;25.05;58.82;99445.31;5075142;28;20177;-86
2023/09/06 07:13:52;;;;;;;4.23;2.53;;;;;;;25.07;59.02;99441.63;5056847;28;20173;-86
2023/09/06 07:16:19;;;;;;;4.43;2.63;;;;;;;25.07;59.59;99441.63;5057457;28;20174;-87
2023/09/06 07:18:47;;;;;;;7.87;3.30;;;;;;;25.14;59.14;99437.28;5068484;28;20189;-87
2023/09/06 07:21:15;;;;;;;8.43;3.40;;;;;;;25.01;58.55;99443.13;5072085;28;20168;-86
2023/09/06 07:23:42;;;;;;;5.33;2.90;;;;;;;25.04;58.47;99442.81;5074259;28;20195;-86
2023/09/06 07:26:10;;;;;;;8.47;3.30;;;;;;;25.08;59.04;99436.09;5056451;28;20269;-87
2023/09/06 07:28:43;;;;;;;6.20;3.40;;;;;;;25.16;59.00;99440.66;5073901;28;20237;-86
2023/09/06 07:31:12;;;;;;;7.40;3.00;;;;;;;25.23;58.25;99445.19;5057013;28;20264;-86
2023/09/06 07:33:41;;;;;;;8.57;3.13;;;;;;;25.32;58.29;99441.50;5074128;28;20662;-87
2023/09/06 07:36:08;;;;;;;4.83;2.93;;;;;;;25.36;57.70;99433.94;5053837;28;20254;-86
2023/09/06 07:38:33;;;;;;;5.03;2.90;;;;;;;25.43;57.89;99435.78;5063513;28;20188;-86
2023/09/06 07:41:00;;;;;;;6.23;2.73;;;;;;;25.51;57.90;99435.00;5092335;28;20176;-87
2023/09/06 07:43:28;;;;;;;6.43;2.30;;;;;;;25.49;57.13;99423.59;5092309;28;20191;-87
2023/09/06 07:45:59;;;;;;;6.97;3.00;;;;;;;25.51;56.78;99424.25;5092053;28;20684;-86
2023/09/06 07:48:28;;;;;;;8.43;3.40;;;;;;;25.57;57.19;99435.16;5072046;28;20236;-86
2023/09/06 07:50:56;;;;;;;5.97;3.03;;;;;;;25.64;56.20;99424.56;5054224;28;20287;-87
2023/09/06 07:53:26;;;;;;;5.67;2.90;;;;;;;25.70;56.39;99433.81;5072143;28;20184;-87
2023/09/06 07:55:53;;;;;;;6.13;3.30;;;;;;;25.74;55.87;99435.97;5074349;28;20173;-87
2023/09/06 07:58:20;;;;;;;4.90;2.80;;;;;;;25.80;54.62;99447.88;5074001;28;20200;-86
2023/09/06 08:00:48;;;;;;;5.40;3.00;;;;;;;25.91;54.93;99445.69;5073601;28;20608;-87
2023/09/06 08:03:14;;;;;;;5.17;2.73;;;;;;;25.90;55.00;99441.31;5073690;28;20221;-87
2023/09/06 08:05:41;;;;;;;5.27;3.20;;;;;;;26.02;55.10;99439.94;5073563;28;20662;-86
2023/09/06 08:08:09;;;;;;;9.70;2.97;;;;;;;26.10;54.72;99437.25;5056038;28;20180;-87
2023/09/06 08:10:37;;;;;;;4.72;2.88;;;;;;;26.11;53.74;99438.94;5055779;28;20226;-87
2023/09/06 08:13:04;;;;;;;5.50;2.97;;;;;;;26.17;53.53;99432.91;5074118;28;20169;-86
2023/09/06 08:15:32;;;;;;;8.80;3.23;;;;;;;26.18;54.48;99434.56;5055832;28;20185;-87
2023/09/06 08:17:59;;;;;;;5.57;2.80;;;;;;;26.22;54.08;99441.28;5074288;28;20184;-87
2023/09/06 08:20:24;;;;;;;7.23;3.07;;;;;;;26.40;53.96;99438.38;5073397;28;20264;-86
2023/09/06 08:22:51;;;;;;;11.47;2.93;;;;;;;26.52;54.10;99428.09;5074230;28;20256;-87
2023/09/06 08:25:18;;;;;;;5.13;2.90;;;;;;;26.60;52.10;99428.03;5073824;28;20173;-88
2023/09/06 08:27:45;;;;;;;7.50;3.50;;;;;;;26.55;52.44;99422.31;5073096;28;20260;-87
2023/09/06 08:30:15;;;;;;;7.63;3.40;;;;;;;26.81;52.96;99425.59;5073508;28;20370;-88
2023/09/06 08:32:42;;;;;;;7.97;2.70;;;;;;;27.15;53.35;99417.97;5055257;28;20547;-87
2023/09/06 08:35:09;;;;;;;6.22;2.83;;;;;;;27.51;52.43;99403.94;5073194;28;20268;-87
2023/09/06 08:37:36;;;;;;;5.63;2.95;;;;;;;27.63;48.87;99415.94;5055824;28;20177;-89
2023/09/06 08:40:05;;;;;;;10.13;2.80;;;;;;;27.74;48.71;99408.25;5055661;28;20185;-87
2023/09/06 08:42:33;;;;;;;4.90;2.95;;;;;;;27.98;48.54;99412.56;5055286;28;20188;-89
2023/09/06 08:45:02;;;;;;;5.85;2.90;;;;;;;28.22;48.16;99412.34;5055732;28;20185;-86
2023/09/06 08:47:29;;;;;;;4.80;2.97;;;;;;;28.49;47.50;99410.81;5055271;28;20614;-86
2023/09/06 08:49:57;;;;;;;6.57;2.88;;;;;;;28.67;47.01;99413.97;5073080;28;20242;-89
2023/09/06 08:52:24;;;;;;;7.13;3.00;;;;;;;28.74;48.87;99416.75;5055339;28;20177;-87
2023/09/06 08:54:50;;;;;;;6.28;2.60;;;;;;;28.92;47.74;99414.47;5073135;28;20275;-87
2023/09/06 08:57:19;;;;;;;5.97;2.80;;;;;;;29.07;47.63;99421.50;5073304;28;20205;-87
2023/09/06 08:59:49;;;;;;;5.03;2.88;;;;;;;29.24;44.91;99422.13;5072949;28;20266;-87
2023/09/06 09:02:16;;;;;;;5.25;3.00;;;;;;;29.43;46.74;99421.44;5055237;28;20264;-87
2023/09/06 09:04:42;;;;;;;9.23;3.33;;;;;;;29.47;45.34;99424.59;5073249;28;20180;-86
2023/09/06 09:07:10;;;;;;;8.38;3.35;;;;;;;29.58;46.84;99429.50;5072863;28;20287;-87
2023/09/06 09:09:56;;;;;;;4.97;3.10;;;;;;;29.90;43.60;99420.81;5072732;28;20549;-89
2023/09/06 09:12:30;;;;;;;8.80;2.97;;;;;;;29.95;43.77;99423.78;5073165;28;20202;-87
2023/09/06 09:14:58;;;;;;;6.35;3.17;;;;;;;30.10;43.33;99423.66;5072756;28;20176;-87
2023/09/06 09:17:25;;;;;;;7.05;3.00;;;;;;;30.19;43.91;99422.50;5055265;28;20608;-87
2023/09/06 09:19:52;;;;;;;13.10;3.72;;;;;;;30.31;42.92;99427.13;5038600;28;20567;-87
2023/09/06 09:22:27;;;;;;;5.38;3.10;;;;;;;30.52;43.06;99425.38;5072582;28;20696;-89
2023/09/06 09:24:59;;;;;;;5.50;3.10;;;;;;;30.55;42.87;99433.94;5055663;28;20549;-88
2023/09/06 09:27:27;;;;;;;6.22;3.15;;;;;;;30.58;43.17;99436.25;5072910;28;20673;-88
2023/09/06 09:29:54;;;;;;;11.27;3.65;;;;;;;30.65;44.10;99423.59;5072685;28;20259;-87
2023/09/06 09:32:22;;;;;;;6.88;3.85;;;;;;;30.83;42.61;99429.28;5072405;28;20275;-87
2023/09/06 09:34:52;;;;;;;6.10;3.80;;;;;;;30.93;42.47;99429.75;5072593;28;20523;-88
2023/09/06 09:37:19;;;;;;;6.47;3.50;;;;;;;30.94;41.07;99431.44;5055180;28;20260;-88
2023/09/06 09:39:47;;;;;;;5.93;3.50;;;;;;;30.94;41.73;99441.41;5073923;28;20181;-88
2023/09/06 09:42:14;;;;;;;8.05;3.97;;;;;;;30.86;42.23;99431.56;5076207;28;20196;-88
2023/09/06 09:44:41;;;;;;;7.55;3.70;;;;;;;30.72;41.58;99421.72;5076254;28;20184;-89
2023/09/06 09:47:14;;;;;;;6.82;3.88;;;;;;;30.60;43.90;99420.66;5076167;28;20208;-87
2023/09/06 09:49:43;;;;;;;5.80;3.63;;;;;;;30.63;43.35;99427.53;5076135;28;20618;-87
2023/09/06 09:52:13;;;;;;;5.47;3.65;;;;;;;30.77;43.28;99424.66;5065719;28;20708;-87
2023/09/06 09:54:45;;;;;;;9.25;3.85;;;;;;;30.67;44.21;99418.78;5058670;28;20216;-87
2023/09/06 09:57:13;;;;;;;6.35;3.72;;;;;;;30.96;42.69;99418.50;5058123;28;20166;-88
2023/09/06 09:59:40;;;;;;;7.00;4.13;;;;;;;31.29;42.20;99406.91;5038263;28;20193;-87
2023/09/06 10:02:15;;;;;;;5.95;4.30;;;;;;;31.46;41.48;99408.19;5075403;28;20346;-87
2023/09/06 10:04:43;;;;;;;8.02;4.65;;;;;;;31.69;42.12;99407.78;5076385;28;20517;-87
2023/09/06 10:07:13;;;;;;;6.40;4.32;;;;;;;31.88;41.93;99398.78;5074603;28;20189;-86
2023/09/06 10:09:40;;;;;;;6.88;4.35;;;;;;;32.02;41.48;99405.91;5075776;28;20177;-87
2023/09/06 10:12:14;;;;;;;8.95;4.90;;;;;;;31.92;40.47;99397.34;5075008;28;20181;-87
2023/09/06 10:14:42;;;;;;;7.75;4.07;;;;;;;31.90;40.77;99400.25;5075370;28;20256;-86
2023/09/06 10:17:11;;;;;;;8.55;4.07;;;;;;;31.81;40.66;99395.28;5075953;28;20184;-87
2023/09/06 10:19:38;;;;;;;7.68;4.55;;;;;;;31.59;40.55;99400.91;5075936;28;20177;-87
2023/09/06 10:22:07;;;;;;;9.55;4.60;;;;;;;31.48;40.61;99406.94;5057898;28;20179;-87
2023/09/06 10:24:35;;;;;;;9.10;4.93;;;;;;;31.30;41.02;99397.72;5075353;28;20239;-87
2023/09/06 10:27:03;;;;;;;6.82;4.53;;;;;;;31.35;42.01;99400.66;5075959;28;20610;-87
2023/09/06 10:29:31;;;;;;;10.10;4.82;;;;;;;31.40;42.12;99399.00;5057714;28;20189;-87
2023/09/06 10:32:04;;;;;;;6.72;4.10;;;;;;;31.47;42.66;99393.63;5075164;28;20197;-87
2023/09/06 10:34:34;;;;;;;10.23;4.70;;;;;;;31.38;41.59;99398.38;5057719;28;20636;-87
2023/09/06 10:37:03;;;;;;;7.35;4.70;;;;;;;31.34;42.25;99394.38;5057930;28;20181;-88
2023/09/06 10:39:30;;;;;;;9.80;4.78;;;;;;;31.35;41.15;99389.81;5084220;28;20180;-88
2023/09/06 10:42:11;;;;;;;6.30;4.25;;;;;;;31.27;42.44;99382.72;5079002;28;20185;-88
2023/09/06 10:44:55;;;;;;;6.30;3.90;;;;;;;31.28;42.11;99381.69;5075139;28;20185;-87
2023/09/06 10:47:30;;;;;;;10.63;5.05;;;;;;;31.11;42.70;99382.28;5057190;28;20217;-87
2023/09/06 10:50:21;;;;;;;9.80;4.80;;;;;;;31.28;41.99;99375.44;5057488;28;20621;-87
2023/09/06 10:52:59;;;;;;;6.80;4.55;;;;;;;31.30;41.03;99371.47;5037660;28;20626;-87
2023/09/06 10:55:27;;;;;;;11.07;4.55;;;;;;;31.06;42.81;99379.34;5037402;28;20176;-87
2023/09/06 10:57:58;;;;;;;6.72;4.80;;;;;;;30.90;42.91;99375.97;5046751;28;20260;-87
2023/09/06 11:00:34;;;;;;;9.38;4.80;;;;;;;31.17;41.92;99373.34;5075407;28;20172;-87
2023/09/06 11:03:17;;;;;;;6.82;4.20;;;;;;;30.94;40.91;99363.75;5074607;28;20161;-89
2023/09/06 11:05:52;;;;;;;12.02;5.18;;;;;;;30.51;41.35;99361.47;5075492;28;20196;-89
2023/09/06 11:08:24;;;;;;;9.43;5.07;;;;;;;30.37;42.34;99366.84;5057878;28;20171;-88
2023/09/06 11:10:53;;;;;;;7.05;4.90;;;;;;;30.69;42.16;99362.59;5074892;28;20579;-88
2023/09/06 11:13:20;;;;;;;8.57;5.18;;;;;;;30.94;42.06;99355.63;5057004;28;20213;-88
2023/09/06 11:15:50;;;;;;;6.93;4.50;;;;;;;30.85;40.96;99356.81;5057222;28;20645;-88
2023/09/06 11:18:15;;;;;;;11.23;5.53;;;;;;;30.95;41.36;99353.72;5056969;28;20548;-87
2023/09/06 11:20:47;;;;;;;8.18;4.72;;;;;;;30.88;41.13;99350.97;5074481;28;20615;-87
2023/09/06 11:23:13;;;;;;;8.73;4.75;;;;;;;31.05;41.43;99343.34;5056786;28;20169;-88
2023/09/06 11:25:39;;;;;;;10.85;4.97;;;;;;;31.01;41.88;99340.19;5074143;28;20200;-87
2023/09/06 11:28:19;;;;;;;13.48;5.18;;;;;;;31.01;41.54;99348.31;5057110;28;20232;-88
2023/09/06 11:30:47;;;;;;;7.97;4.95;;;;;;;30.74;42.07;99343.84;5056858;28;20188;-88
2023/09/06 11:33:16;;;;;;;9.05;5.35;;;;;;;30.66;42.39;99348.66;5056861;28;20546;-87
2023/09/06 11:35:58;;;;;;;7.50;4.68;;;;;;;30.74;42.84;99349.28;5056755;28;20208;-87
2023/09/06 11:38:33;;;;;;;11.10;4.95;;;;;;;30.62;42.31;99348.22;5074402;28;20158;-87